Time;durP1;ratioP1;P1;durP2;ratioP2;P2;SDS_P1;SDS_P2;PMS_P1;PMS_P2;Temp;Humidity;BMP_temperature;BMP_pressure;BME280_temperature;BME280_humidity;BME280_pressure;Samples;Min_cycle;Max_cycle;Signal;HPM_P1;HPM_P2
2022/01/12 00:01:52;;;;;;;93.65;39.17;;;3.60;99.90;;;;;;4877668;29;20052;-90
2022/01/12 00:04:18;;;;;;;93.53;37.40;;;3.60;99.90;;;;;;4877566;29;20040;-89
2022/01/12 00:06:43;;;;;;;119.78;40.65;;;3.60;99.90;;;;;;4875091;29;20057;-89
2022/01/12 00:09:09;;;;;;;105.18;38.85;;;3.60;99.90;;;;;;4862245;29;20518;-89
2022/01/12 00:11:36;;;;;;;103.40;38.53;;;3.60;99.90;;;;;;4855350;29;20074;-90
2022/01/12 00:14:03;;;;;;;103.00;38.65;;;3.70;99.90;;;;;;4851588;29;20480;-89
2022/01/12 00:16:28;;;;;;;109.03;40.13;;;3.80;99.90;;;;;;4851658;29;20072;-89
2022/01/12 00:18:54;;;;;;;115.05;40.30;;;3.60;99.90;;;;;;4863884;29;20620;-89
2022/01/12 00:21:19;;;;;;;107.30;40.83;;;3.60;99.90;;;;;;4867846;29;20140;-89
2022/01/12 00:23:45;;;;;;;120.78;41.67;;;3.60;99.90;;;;;;4855100;29;20056;-89
2022/01/12 00:26:23;;;;;;;109.45;42.70;;;3.60;99.90;;;;;;4858613;29;20049;-89
2022/01/12 00:34:31;;;;;;;;;;;3.60;99.90;;;;;;4840065;29;19928;-89
2022/01/12 00:36:56;;;;;;;112.68;40.10;;;3.50;99.90;;;;;;4829903;29;20027;-89
2022/01/12 00:39:22;;;;;;;118.43;40.58;;;3.50;99.90;;;;;;4854412;29;20053;-89
2022/01/12 00:41:48;;;;;;;140.68;42.55;;;3.50;99.90;;;;;;4838230;29;20457;-88
2022/01/12 00:44:23;;;;;;;148.70;44.47;;;3.50;99.90;;;;;;4832430;29;20133;-90
2022/01/12 00:46:51;;;;;;;128.52;42.17;;;3.50;99.90;;;;;;4838849;29;20493;-89
2022/01/12 00:49:17;;;;;;;128.45;44.15;;;3.50;99.90;;;;;;4839606;29;20048;-89
2022/01/12 00:51:43;;;;;;;119.70;42.10;;;3.50;99.90;;;;;;4823306;29;20057;-88
2022/01/12 00:54:09;;;;;;;137.95;41.40;;;3.50;99.90;;;;;;4839182;29;20137;-88
2022/01/12 00:56:36;;;;;;;115.95;41.63;;;3.50;99.90;;;;;;4826408;29;20132;-89
2022/01/12 00:59:02;;;;;;;128.15;43.35;;;3.50;99.90;;;;;;4838761;29;20061;-89
2022/01/12 01:01:28;;;;;;;117.65;41.20;;;3.50;99.90;;;;;;4836191;29;20046;-89
2022/01/12 01:03:54;;;;;;;131.30;40.75;;;3.50;99.90;;;;;;4836481;29;20440;-89
2022/01/12 01:06:21;;;;;;;154.15;44.00;;;3.50;99.90;;;;;;4833183;29;20057;-88
2022/01/12 01:08:51;;;;;;;127.28;41.15;;;3.50;99.90;;;;;;4840985;29;20058;-89
2022/01/12 01:11:19;;;;;;;129.40;42.33;;;3.50;99.90;;;;;;4855607;29;20052;-89
2022/01/12 01:13:56;;;;;;;127.00;40.58;;;3.50;99.90;;;;;;4847255;29;20091;-89
2022/01/12 01:27:13;;;;;;;;;;;3.50;99.90;;;;;;4872859;29;20072;-88
2022/01/12 01:29:38;;;;;;;126.88;39.38;;;3.60;99.90;;;;;;4855740;29;19923;-89
2022/01/12 01:32:06;;;;;;;145.23;41.22;;;3.50;99.90;;;;;;4860581;29;20069;-89
2022/01/12 01:34:33;;;;;;;121.78;40.47;;;3.60;99.90;;;;;;4847541;29;20096;-89
2022/01/12 01:36:59;;;;;;;149.75;43.90;;;3.60;99.90;;;;;;4863849;29;20051;-89
2022/01/12 01:39:27;;;;;;;131.15;42.05;;;3.60;99.90;;;;;;4864237;29;20044;-89
2022/01/12 01:42:01;;;;;;;133.88;43.15;;;3.60;99.90;;;;;;4858177;29;20117;-89
2022/01/12 01:55:12;;;;;;;129.18;41.78;;;3.70;99.90;;;;;;4871854;29;20060;-90
2022/01/12 01:57:39;;;;;;;154.93;43.78;;;3.70;99.90;;;;;;4873805;29;20052;-89
2022/01/12 02:00:12;;;;;;;137.20;42.22;;;3.70;99.90;;;;;;4864287;29;20096;-88
2022/01/12 02:02:38;;;;;;;133.25;40.53;;;3.70;99.90;;;;;;4861050;29;20056;-89
2022/01/12 02:05:05;;;;;;;187.98;44.53;;;3.80;99.90;;;;;;4854364;29;20041;-89
2022/01/12 02:07:33;;;;;;;139.13;41.75;;;3.80;99.90;;;;;;4859391;29;20064;-88
2022/01/12 02:09:58;;;;;;;136.63;42.28;;;3.70;99.90;;;;;;4854698;29;20037;-88
2022/01/12 02:12:27;;;;;;;156.43;44.08;;;3.80;99.90;;;;;;4854024;29;20177;-89
2022/01/12 02:14:54;;;;;;;130.18;40.45;;;3.80;99.90;;;;;;4858257;29;20036;-88
2022/01/12 02:17:24;;;;;;;151.18;43.17;;;3.70;99.90;;;;;;4879890;29;20072;-89
2022/01/12 02:41:22;;;;;;;173.15;44.28;;;3.80;99.90;;;;;;4878585;29;20148;-89
2022/01/12 02:54:52;;;;;;;198.73;45.05;;;3.70;99.90;;;;;;4872230;29;20067;-89
2022/01/12 02:57:19;;;;;;;170.82;44.90;;;3.70;99.90;;;;;;4857430;29;20036;-88
2022/01/12 03:02:30;;;;;;;142.48;42.17;;;3.70;99.90;;;;;;4876523;29;20064;-88
2022/01/12 03:07:53;;;;;;;223.82;46.67;;;3.80;99.90;;;;;;4840567;29;20346;-88
2022/01/12 03:10:20;;;;;;;163.68;42.80;;;3.70;99.90;;;;;;4842597;29;20049;-88
2022/01/12 03:12:46;;;;;;;153.55;42.78;;;3.70;99.90;;;;;;4826902;29;20467;-89
2022/01/12 03:15:12;;;;;;;187.23;44.80;;;3.70;99.90;;;;;;4825665;29;20045;-89
2022/01/12 03:17:38;;;;;;;172.25;45.33;;;3.70;99.90;;;;;;4840808;29;20053;-88
2022/01/12 03:20:06;;;;;;;149.48;43.17;;;3.70;99.90;;;;;;4849121;29;20535;-89
2022/01/12 03:22:32;;;;;;;178.98;44.38;;;3.70;99.90;;;;;;4841457;29;20500;-89
2022/01/12 03:24:57;;;;;;;195.10;46.45;;;3.70;99.90;;;;;;4843548;29;20057;-88
2022/01/12 03:27:25;;;;;;;152.95;41.85;;;3.70;99.90;;;;;;4847646;29;20048;-89
2022/01/12 03:29:55;;;;;;;198.98;46.03;;;3.70;99.90;;;;;;4825113;29;20075;-88
2022/01/12 03:32:27;;;;;;;223.15;47.15;;;3.70;99.90;;;;;;4843211;29;20069;-89
2022/01/12 03:35:05;;;;;;;162.93;44.58;;;3.80;99.90;;;;;;4850156;29;20146;-90
2022/01/12 03:40:20;;;;;;;191.68;43.78;;;3.80;99.90;;;;;;4804281;29;20154;-89
2022/01/12 03:42:45;;;;;;;187.07;44.83;;;3.70;99.90;;;;;;4810285;29;20054;-89
2022/01/12 03:45:11;;;;;;;156.85;42.95;;;3.70;99.90;;;;;;4800378;29;20137;-89
2022/01/12 03:47:37;;;;;;;166.98;44.20;;;3.70;99.90;;;;;;4785757;29;20038;-88
2022/01/12 03:50:03;;;;;;;161.75;42.97;;;3.80;99.90;;;;;;4800338;29;20605;-89
2022/01/12 03:52:29;;;;;;;156.15;42.63;;;3.80;99.90;;;;;;4785452;29;20507;-88
2022/01/12 03:54:55;;;;;;;153.75;42.47;;;3.80;99.90;;;;;;4799106;29;20058;-88
2022/01/12 03:57:20;;;;;;;177.45;43.10;;;3.80;99.90;;;;;;4792917;29;20536;-89
2022/01/12 03:59:46;;;;;;;189.88;42.83;;;3.80;99.90;;;;;;4784782;29;20055;-88
2022/01/12 04:02:11;;;;;;;184.45;43.83;;;3.80;99.90;;;;;;4785879;29;20050;-88
2022/01/12 04:04:53;;;;;;;148.95;42.08;;;3.80;99.90;;;;;;4815101;29;20055;-89
2022/01/12 04:10:03;;;;;;;;;;;3.80;99.90;;;;;;4783306;29;20058;-89
2022/01/12 04:12:29;;;;;;;150.10;40.95;;;3.80;99.90;;;;;;4781387;29;19921;-88
2022/01/12 04:14:54;;;;;;;152.80;39.67;;;3.80;99.90;;;;;;4785133;29;20043;-89
2022/01/12 04:17:20;;;;;;;163.93;42.08;;;3.80;99.90;;;;;;4831111;29;20434;-89
2022/01/12 04:19:46;;;;;;;167.02;40.65;;;3.80;99.90;;;;;;4850378;29;20411;-89
2022/01/12 04:24:56;;;;;;;;;;;3.70;99.90;;;;;;4874656;29;20045;-89
2022/01/12 04:27:21;;;;;;;133.80;38.05;;;3.70;99.90;;;;;;4853828;29;19924;-89
2022/01/12 04:29:47;;;;;;;125.72;37.50;;;3.70;99.90;;;;;;4862744;29;20048;-89
2022/01/12 04:32:12;;;;;;;133.27;38.75;;;3.70;99.90;;;;;;4862833;29;20040;-89
2022/01/12 04:34:38;;;;;;;127.82;38.28;;;3.70;99.90;;;;;;4874973;29;20052;-89
2022/01/12 04:37:03;;;;;;;159.05;39.40;;;3.70;99.90;;;;;;4889258;29;20464;-89
2022/01/12 04:39:29;;;;;;;136.27;37.17;;;3.70;99.90;;;;;;4851584;29;20445;-89
2022/01/12 04:41:55;;;;;;;143.10;38.92;;;3.70;99.90;;;;;;4856611;29;20048;-89
2022/01/12 04:44:20;;;;;;;125.38;36.83;;;3.60;99.90;;;;;;4858939;29;20091;-89
2022/01/12 04:47:02;;;;;;;122.80;37.80;;;3.60;99.90;;;;;;4849002;29;20045;-89
2022/01/12 04:52:02;;;;;;;119.30;36.72;;;3.50;99.90;;;;;;4878874;29;20060;-89
2022/01/12 04:54:28;;;;;;;126.07;37.70;;;3.40;99.90;;;;;;4875474;29;20045;-89
2022/01/12 04:56:53;;;;;;;134.50;37.60;;;3.30;99.90;;;;;;4856257;29;20504;-88
2022/01/12 04:59:19;;;;;;;129.50;36.67;;;3.30;99.90;;;;;;4862115;29;20052;-89
2022/01/12 05:01:52;;;;;;;122.55;34.45;;;3.20;99.90;;;;;;4860989;29;20053;-88
2022/01/12 05:14:51;;;;;;;;;;;2.70;99.90;;;;;;4881276;29;20056;-89
2022/01/12 05:17:17;;;;;;;172.75;30.92;;;2.60;99.90;;;;;;4865822;29;20426;-88
2022/01/12 05:19:42;;;;;;;357.85;36.15;;;2.50;99.90;;;;;;4857390;29;20153;-89
2022/01/12 05:22:08;;;;;;;96.05;29.63;;;2.50;99.90;;;;;;4865414;29;20495;-89
2022/01/12 05:24:34;;;;;;;294.52;34.92;;;2.40;99.90;;;;;;4872250;29;20180;-88
2022/01/12 05:27:00;;;;;;;291.38;33.08;;;2.40;99.90;;;;;;4857508;29;20698;-89
2022/01/12 05:29:25;;;;;;;223.68;31.23;;;2.30;99.90;;;;;;4870870;29;20131;-88
2022/01/12 05:31:51;;;;;;;149.30;27.73;;;2.30;99.90;;;;;;4864444;29;20055;-90
2022/01/12 05:34:16;;;;;;;254.43;30.02;;;2.20;99.90;;;;;;4863520;29;20044;-89
2022/01/12 05:36:42;;;;;;;159.45;28.80;;;2.10;99.90;;;;;;4864196;29;20048;-90
2022/01/12 05:39:07;;;;;;;172.25;27.02;;;2.10;99.90;;;;;;4879401;29;20076;-89
2022/01/12 05:41:33;;;;;;;163.75;25.20;;;2.00;99.90;;;;;;4861436;29;20048;-90
2022/01/12 05:43:59;;;;;;;146.88;27.30;;;1.90;99.90;;;;;;4869954;29;20127;-89
2022/01/12 05:46:26;;;;;;;86.72;26.10;;;1.90;99.90;;;;;;4865726;29;20045;-90
2022/01/12 05:51:38;;;;;;;79.05;24.17;;;1.80;99.90;;;;;;4878218;29;20533;-89
2022/01/12 05:54:04;;;;;;;143.30;26.67;;;1.70;99.90;;;;;;4861176;29;20041;-90
2022/01/12 05:56:30;;;;;;;122.38;25.35;;;1.70;99.90;;;;;;4863310;29;20044;-90
2022/01/12 05:58:55;;;;;;;123.38;25.63;;;1.60;99.90;;;;;;4860234;29;20127;-90
2022/01/12 06:01:21;;;;;;;629.47;39.30;;;1.50;99.90;;;;;;4858920;29;20081;-89
2022/01/12 06:03:47;;;;;;;117.03;25.33;;;1.40;99.90;;;;;;4877480;29;20048;-90
2022/01/12 06:06:12;;;;;;;107.85;24.70;;;1.30;99.90;;;;;;4867293;29;20092;-88
2022/01/12 06:08:38;;;;;;;72.20;22.83;;;1.40;99.90;;;;;;4861466;29;20048;-89
2022/01/12 06:11:04;;;;;;;56.17;23.60;;;1.30;99.90;;;;;;4856471;29;20044;-89
2022/01/12 06:13:29;;;;;;;106.47;25.98;;;1.40;99.90;;;;;;4856878;29;20047;-91
2022/01/12 06:15:55;;;;;;;315.70;31.15;;;1.40;99.90;;;;;;4855104;29;20044;-91
2022/01/12 06:18:21;;;;;;;223.30;35.10;;;1.40;99.90;;;;;;4860456;29;20501;-93
2022/01/12 06:20:46;;;;;;;113.72;28.95;;;1.40;99.90;;;;;;4866558;29;20156;-89
2022/01/12 06:23:12;;;;;;;123.03;24.52;;;1.40;99.90;;;;;;4858489;29;20082;-89
2022/01/12 06:25:38;;;;;;;146.40;24.65;;;1.30;99.90;;;;;;4872620;29;20053;-89
2022/01/12 06:31:10;;;;;;;176.15;24.05;;;1.10;99.90;;;;;;4877417;29;20053;-89
2022/01/12 06:33:43;;;;;;;50.67;21.30;;;1.10;99.90;;;;;;4873903;29;20045;-88
2022/01/12 06:36:11;;;;;;;81.55;21.65;;;1.10;99.90;;;;;;4873595;29;20037;-89
2022/01/12 06:38:37;;;;;;;112.20;22.73;;;1.00;99.90;;;;;;4867763;29;20040;-89
2022/01/12 06:41:04;;;;;;;55.00;23.42;;;1.00;99.90;;;;;;4862086;29;20707;-89
2022/01/12 06:43:30;;;;;;;50.53;22.40;;;1.00;99.90;;;;;;4884671;29;20044;-90
2022/01/12 06:45:56;;;;;;;82.68;27.55;;;1.00;99.90;;;;;;4877215;29;20037;-88
2022/01/12 06:48:22;;;;;;;180.10;28.63;;;1.00;99.90;;;;;;4856527;29;20080;-87
2022/01/12 06:50:47;;;;;;;115.75;24.80;;;0.90;99.90;;;;;;4860967;29;20052;-87
2022/01/12 06:53:13;;;;;;;52.72;22.88;;;0.90;99.90;;;;;;4860681;29;20503;-86
2022/01/12 06:55:38;;;;;;;92.13;29.20;;;0.90;99.90;;;;;;4860318;29;20463;-88
2022/01/12 06:58:04;;;;;;;102.13;29.88;;;1.00;99.90;;;;;;4860196;29;20040;-88
2022/01/12 07:00:29;;;;;;;157.45;27.85;;;1.00;99.90;;;;;;4876481;29;20132;-87
2022/01/12 07:02:55;;;;;;;87.15;24.88;;;0.90;99.90;;;;;;4862721;29;20077;-87
2022/01/12 07:05:20;;;;;;;56.42;23.95;;;0.90;99.90;;;;;;4859196;29;20594;-87
2022/01/12 07:07:46;;;;;;;49.50;22.50;;;0.90;99.90;;;;;;4857033;29;20096;-87
2022/01/12 07:10:12;;;;;;;52.05;23.30;;;0.90;99.90;;;;;;4862163;29;20414;-87
2022/01/12 07:12:37;;;;;;;56.03;23.92;;;0.90;99.90;;;;;;4863635;29;20041;-87
2022/01/12 07:15:04;;;;;;;81.30;25.30;;;0.80;99.90;;;;;;4863524;29;20064;-87
2022/01/12 07:17:29;;;;;;;53.72;23.77;;;0.80;99.90;;;;;;4860394;29;20444;-87
2022/01/12 07:19:55;;;;;;;53.60;23.02;;;0.80;99.90;;;;;;4858326;29;20083;-87
2022/01/12 07:22:20;;;;;;;76.93;27.23;;;0.80;99.90;;;;;;4860950;29;20397;-87
2022/01/12 07:24:46;;;;;;;48.35;21.88;;;0.80;99.90;;;;;;4862420;29;20443;-87
2022/01/12 07:27:11;;;;;;;51.15;23.85;;;0.80;99.90;;;;;;4860126;29;20568;-88
2022/01/12 07:29:37;;;;;;;52.90;22.92;;;0.80;99.90;;;;;;4857800;29;20068;-88
2022/01/12 07:32:03;;;;;;;97.03;24.30;;;0.90;99.90;;;;;;4862697;29;20040;-88
2022/01/12 07:34:28;;;;;;;53.42;23.55;;;0.90;99.90;;;;;;4862518;29;20104;-88
2022/01/12 07:36:54;;;;;;;68.35;25.15;;;0.90;99.90;;;;;;4876612;29;20099;-88
2022/01/12 07:39:19;;;;;;;102.20;26.58;;;0.90;99.90;;;;;;4870602;29;20057;-88
2022/01/12 07:41:45;;;;;;;82.85;26.33;;;0.90;99.90;;;;;;4849685;29;20049;-88
2022/01/12 07:44:11;;;;;;;88.13;25.52;;;1.00;99.90;;;;;;4859314;29;20063;-87
2022/01/12 07:46:36;;;;;;;107.07;27.00;;;1.10;99.90;;;;;;4862686;29;20052;-89
2022/01/12 07:49:02;;;;;;;83.57;26.88;;;1.10;99.90;;;;;;4865950;29;20044;-89
2022/01/12 07:51:28;;;;;;;83.47;26.45;;;1.20;99.90;;;;;;4865658;29;20048;-89
2022/01/12 07:53:53;;;;;;;126.93;31.13;;;1.20;99.90;;;;;;4860886;29;20036;-89
2022/01/12 07:56:19;;;;;;;99.18;28.13;;;1.30;99.90;;;;;;4872502;29;20048;-88
2022/01/12 07:58:45;;;;;;;261.15;66.55;;;1.40;99.90;;;;;;4860435;29;20104;-89
2022/01/12 08:01:12;;;;;;;413.17;131.98;;;1.50;99.90;;;;;;4857221;29;20048;-89
2022/01/12 08:03:38;;;;;;;169.20;42.10;;;1.60;99.90;;;;;;4861656;29;20048;-89
2022/01/12 08:06:03;;;;;;;127.90;34.13;;;1.70;99.90;;;;;;4868589;29;20119;-89
2022/01/12 08:08:29;;;;;;;151.77;30.10;;;1.80;99.90;;;;;;4860816;29;20056;-88
2022/01/12 08:10:55;;;;;;;144.65;29.88;;;1.80;99.90;;;;;;4874109;29;20093;-89
2022/01/12 08:13:20;;;;;;;134.93;31.48;;;1.90;99.90;;;;;;4864111;29;20418;-89
2022/01/12 08:15:46;;;;;;;157.73;31.23;;;2.00;99.90;;;;;;4860574;29;20075;-90
2022/01/12 08:18:11;;;;;;;139.27;30.25;;;2.00;99.90;;;;;;4860143;29;20057;-89
2022/01/12 08:20:37;;;;;;;126.85;31.15;;;2.10;99.90;;;;;;4861361;29;20073;-89
2022/01/12 08:23:03;;;;;;;108.57;31.38;;;2.10;99.90;;;;;;4849579;29;20048;-90
2022/01/12 08:25:28;;;;;;;111.20;29.85;;;2.20;99.90;;;;;;4862984;29;20123;-90
2022/01/12 08:27:54;;;;;;;108.35;29.17;;;2.20;99.90;;;;;;4860451;29;20041;-89
2022/01/12 08:30:28;;;;;;;129.13;29.33;;;2.30;99.90;;;;;;4849889;29;20104;-90
2022/01/12 08:32:53;;;;;;;96.68;27.52;;;2.40;99.90;;;;;;4876076;29;20084;-90
2022/01/12 08:35:20;;;;;;;114.65;28.85;;;2.40;99.90;;;;;;4876511;29;20511;-90
2022/01/12 08:37:46;;;;;;;131.75;30.23;;;2.50;99.90;;;;;;4861164;29;20052;-89
2022/01/12 08:40:15;;;;;;;137.57;30.58;;;2.50;99.90;;;;;;4863905;29;20079;-89
2022/01/12 08:42:41;;;;;;;134.20;30.23;;;2.70;99.90;;;;;;4876418;29;20132;-88
2022/01/12 08:45:07;;;;;;;135.50;30.02;;;2.80;99.90;;;;;;4851955;29;20045;-91
2022/01/12 08:47:33;;;;;;;150.50;37.53;;;2.80;99.90;;;;;;4849368;29;20040;-90
2022/01/12 08:49:59;;;;;;;167.77;38.75;;;2.90;99.90;;;;;;4853126;29;20060;-90
2022/01/12 08:52:25;;;;;;;123.68;33.58;;;3.00;99.90;;;;;;4861719;29;20045;-90
2022/01/12 08:54:51;;;;;;;130.70;31.58;;;3.00;99.90;;;;;;4875785;29;20048;-89
2022/01/12 08:57:17;;;;;;;157.55;33.13;;;3.10;99.90;;;;;;4843661;29;20049;-90
2022/01/12 08:59:44;;;;;;;148.20;30.67;;;3.10;99.90;;;;;;4860552;29;20059;-90
2022/01/12 09:02:11;;;;;;;139.65;28.00;;;3.20;99.90;;;;;;4857822;29;20048;-90
2022/01/12 09:04:37;;;;;;;125.57;28.63;;;3.20;99.90;;;;;;4852740;29;20076;-90
2022/01/12 09:07:03;;;;;;;117.80;26.13;;;3.20;99.90;;;;;;4856360;29;20578;-90
2022/01/12 09:09:30;;;;;;;125.93;27.38;;;3.30;99.90;;;;;;4852895;29;20063;-91
2022/01/12 09:11:56;;;;;;;127.50;27.02;;;3.30;99.90;;;;;;4856304;29;20033;-90
2022/01/12 09:14:22;;;;;;;113.57;27.63;;;3.40;99.90;;;;;;4860100;29;20479;-91
2022/01/12 09:16:54;;;;;;;101.40;25.77;;;3.40;99.90;;;;;;4857341;29;20057;-91
2022/01/12 09:19:23;;;;;;;114.32;24.42;;;3.50;99.90;;;;;;4861079;29;20037;-91
2022/01/12 09:21:49;;;;;;;92.07;24.35;;;3.60;99.90;;;;;;4859819;29;20056;-91
2022/01/12 09:24:15;;;;;;;102.13;23.95;;;3.70;99.90;;;;;;4863190;29;20048;-91
2022/01/12 09:26:41;;;;;;;87.18;22.27;;;3.70;99.90;;;;;;4856302;29;20185;-90
2022/01/12 09:29:06;;;;;;;98.93;23.83;;;3.80;99.90;;;;;;4868378;29;20578;-90
2022/01/12 09:31:32;;;;;;;127.70;28.02;;;3.90;99.90;;;;;;4856733;29;20132;-90
2022/01/12 09:33:58;;;;;;;115.03;28.20;;;3.90;99.90;;;;;;4860331;29;20041;-91
2022/01/12 09:36:23;;;;;;;118.95;28.38;;;3.90;99.90;;;;;;4865138;29;20519;-90
2022/01/12 09:38:49;;;;;;;106.35;24.10;;;4.00;99.90;;;;;;4860430;29;20669;-90
2022/01/12 09:41:15;;;;;;;111.93;27.00;;;4.00;99.90;;;;;;4853724;29;20041;-90
2022/01/12 09:43:42;;;;;;;110.63;26.90;;;4.00;99.90;;;;;;4859963;29;20080;-91
2022/01/12 09:46:12;;;;;;;100.35;25.08;;;4.10;99.90;;;;;;4858359;29;20803;-91
2022/01/12 09:48:40;;;;;;;98.43;25.20;;;4.10;99.90;;;;;;4863943;29;20444;-91
2022/01/12 09:51:07;;;;;;;111.15;26.35;;;4.10;99.90;;;;;;4856641;29;20056;-90
2022/01/12 09:53:33;;;;;;;93.28;23.10;;;4.20;99.90;;;;;;4866245;29;20054;-91
2022/01/12 09:56:00;;;;;;;82.70;23.10;;;4.20;99.90;;;;;;4854964;29;20037;-90
2022/01/12 09:58:33;;;;;;;83.40;22.58;;;4.20;99.90;;;;;;4870822;29;20429;-90
2022/01/12 10:01:00;;;;;;;86.72;23.60;;;4.20;99.90;;;;;;4864018;29;20070;-90
2022/01/12 10:03:27;;;;;;;75.70;19.52;;;4.30;99.90;;;;;;4858224;29;20062;-90
2022/01/12 10:05:53;;;;;;;73.88;20.05;;;4.30;99.90;;;;;;4858991;29;20131;-90
2022/01/12 10:08:19;;;;;;;74.57;19.75;;;4.40;99.90;;;;;;4889143;29;20087;-90
2022/01/12 10:11:05;;;;;;;57.05;18.15;;;4.50;99.90;;;;;;4858542;29;20045;-90
2022/01/12 10:13:31;;;;;;;64.03;18.50;;;4.60;99.90;;;;;;4887258;29;20605;-90
2022/01/12 10:15:57;;;;;;;67.68;18.42;;;4.70;99.90;;;;;;4858586;29;20076;-91
2022/01/12 10:18:22;;;;;;;63.20;17.65;;;4.80;99.90;;;;;;4864206;29;20130;-89
2022/01/12 10:20:49;;;;;;;71.78;19.70;;;4.80;99.90;;;;;;4871372;29;20044;-89
2022/01/12 10:23:15;;;;;;;408.27;288.50;;;4.80;99.90;;;;;;4878449;29;20396;-84
2022/01/12 10:25:46;;;;;;;69.80;19.48;;;5.00;99.90;;;;;;4877580;29;20053;-85
2022/01/12 10:28:17;;;;;;;78.53;19.33;;;4.90;99.90;;;;;;4856430;29;20045;-85
2022/01/12 10:30:58;;;;;;;71.60;21.05;;;4.90;99.90;;;;;;4876195;29;20063;-85
2022/01/12 10:33:30;;;;;;;83.55;19.23;;;4.90;99.90;;;;;;4887180;29;20081;-85
2022/01/12 10:35:58;;;;;;;75.78;18.20;;;5.00;99.90;;;;;;4862961;29;20036;-86
2022/01/12 10:38:26;;;;;;;89.95;17.02;;;5.20;99.90;;;;;;4872596;29;20048;-86
2022/01/12 10:40:58;;;;;;;70.07;16.88;;;5.10;99.90;;;;;;4859859;29;20143;-85
2022/01/12 10:43:40;;;;;;;71.00;17.25;;;5.10;99.90;;;;;;4869354;29;20036;-85
2022/01/12 10:46:08;;;;;;;84.47;21.13;;;5.10;99.90;;;;;;4864648;29;20041;-87
2022/01/12 10:48:55;;;;;;;69.82;16.58;;;5.20;99.90;;;;;;4862359;29;20128;-86
2022/01/12 10:51:25;;;;;;;78.20;18.70;;;5.30;99.90;;;;;;4869320;29;20076;-87
2022/01/12 10:53:53;;;;;;;79.55;20.95;;;5.30;99.90;;;;;;4877288;29;20037;-86
2022/01/12 10:56:20;;;;;;;87.63;21.92;;;5.40;99.90;;;;;;4887071;29;20137;-86
2022/01/12 10:58:48;;;;;;;68.57;16.90;;;5.50;99.90;;;;;;4858230;29;20080;-87
2022/01/12 11:01:16;;;;;;;70.25;20.63;;;5.50;99.90;;;;;;4862406;29;20224;-85
2022/01/12 11:03:42;;;;;;;63.08;16.83;;;5.50;99.90;;;;;;4877770;29;20570;-85
2022/01/12 11:06:09;;;;;;;66.90;23.23;;;5.40;99.90;;;;;;4860956;29;20120;-86
2022/01/12 11:08:36;;;;;;;63.78;17.25;;;5.50;99.90;;;;;;4856539;29;20105;-85
2022/01/12 11:11:03;;;;;;;59.90;14.52;;;5.60;99.90;;;;;;4867332;29;20052;-86
2022/01/12 11:13:30;;;;;;;65.10;15.60;;;5.60;99.90;;;;;;4889517;29;20048;-86
2022/01/12 11:15:56;;;;;;;59.78;13.23;;;5.60;99.90;;;;;;4888341;29;20681;-86
2022/01/12 11:18:26;;;;;;;62.55;16.60;;;5.60;99.90;;;;;;4870267;29;20040;-86
2022/01/12 11:20:58;;;;;;;60.88;20.83;;;5.60;99.90;;;;;;4866577;29;20083;-86
2022/01/12 11:23:33;;;;;;;58.80;15.80;;;5.60;99.90;;;;;;4884979;29;20040;-87
2022/01/12 11:26:01;;;;;;;66.47;25.17;;;5.60;99.90;;;;;;4868387;29;20268;-86
2022/01/12 11:28:37;;;;;;;70.22;23.25;;;5.60;99.90;;;;;;4855092;29;20097;-86
2022/01/12 11:31:04;;;;;;;57.22;16.67;;;5.60;99.90;;;;;;4851963;29;20037;-86
2022/01/12 11:33:33;;;;;;;49.85;18.30;;;5.70;99.90;;;;;;4860085;29;20418;-86
2022/01/12 11:36:04;;;;;;;45.97;12.73;;;5.70;99.90;;;;;;4876627;29;20045;-86
2022/01/12 11:38:35;;;;;;;55.22;13.80;;;5.90;99.90;;;;;;4858469;29;20044;-86
2022/01/12 11:41:22;;;;;;;57.63;15.40;;;6.00;99.90;;;;;;4854889;29;20057;-86
2022/01/12 11:43:48;;;;;;;51.97;13.82;;;5.90;99.90;;;;;;4872313;29;20060;-86
2022/01/12 11:46:16;;;;;;;56.50;13.40;;;5.90;99.90;;;;;;4861168;29;20099;-86
2022/01/12 11:48:46;;;;;;;46.08;13.95;;;6.00;99.90;;;;;;4886091;29;20048;-86
2022/01/12 11:51:12;;;;;;;47.17;13.43;;;6.00;99.90;;;;;;4874255;29;21254;-86
2022/01/12 11:53:46;;;;;;;44.75;12.63;;;6.10;99.90;;;;;;4858987;29;20066;-86
2022/01/12 11:56:14;;;;;;;55.45;11.45;;;6.20;99.90;;;;;;4883213;29;20052;-86
2022/01/12 11:59:06;;;;;;;45.58;10.65;;;6.20;99.90;;;;;;4871404;29;20090;-86
2022/01/12 12:01:44;;;;;;;41.38;10.30;;;6.20;99.90;;;;;;4851026;29;20423;-86
2022/01/12 12:04:21;;;;;;;47.00;11.90;;;6.20;99.90;;;;;;4867526;29;20049;-86
2022/01/12 12:07:02;;;;;;;47.70;13.10;;;6.20;99.90;;;;;;4848971;29;20114;-86
2022/01/12 12:09:38;;;;;;;49.10;10.35;;;6.20;99.90;;;;;;4854613;29;20520;-86
2022/01/12 12:12:16;;;;;;;44.70;12.77;;;6.00;99.90;;;;;;4883330;29;20046;-86
2022/01/12 12:14:50;;;;;;;42.90;15.10;;;6.00;99.90;;;;;;4871036;29;20556;-86
2022/01/12 12:17:17;;;;;;;46.55;16.02;;;6.00;99.90;;;;;;4867879;29;20408;-86
2022/01/12 12:19:43;;;;;;;54.47;21.13;;;6.10;99.90;;;;;;4869623;29;20053;-86
2022/01/12 12:22:18;;;;;;;65.43;23.20;;;6.10;99.90;;;;;;4869730;29;20136;-86
2022/01/12 12:24:47;;;;;;;58.83;29.10;;;6.10;99.90;;;;;;4850327;29;20060;-86
2022/01/12 12:27:18;;;;;;;49.38;19.05;;;6.10;99.90;;;;;;4871837;29;20057;-86
2022/01/12 12:29:45;;;;;;;56.38;24.85;;;6.20;99.90;;;;;;4867163;29;20100;-86
2022/01/12 12:32:13;;;;;;;61.00;21.33;;;6.10;99.90;;;;;;4851255;29;20380;-86
2022/01/12 12:34:41;;;;;;;47.13;20.50;;;5.90;99.90;;;;;;4871476;29;20507;-86
2022/01/12 12:37:10;;;;;;;63.70;26.77;;;5.90;99.90;;;;;;4849225;29;20048;-86
2022/01/12 12:39:38;;;;;;;42.90;16.48;;;6.00;99.90;;;;;;4868747;29;20072;-86
2022/01/12 12:42:13;;;;;;;44.70;15.98;;;6.10;99.90;;;;;;4877603;29;20046;-86
2022/01/12 12:44:39;;;;;;;42.35;15.82;;;6.10;99.90;;;;;;4864747;29;20813;-86
2022/01/12 12:47:19;;;;;;;56.17;17.85;;;6.10;99.90;;;;;;4856224;29;20092;-86
2022/01/12 12:49:54;;;;;;;43.28;15.65;;;6.10;99.90;;;;;;4853541;29;20096;-87
2022/01/12 12:52:33;;;;;;;36.35;14.38;;;6.10;99.90;;;;;;4864197;29;20040;-87
2022/01/12 12:55:01;;;;;;;38.83;14.85;;;6.10;99.90;;;;;;4853863;29;20072;-84
2022/01/12 12:57:28;;;;;;;43.80;16.00;;;6.00;99.90;;;;;;4852145;29;20044;-85
2022/01/12 13:00:16;;;;;;;42.40;15.43;;;6.00;99.90;;;;;;4869385;29;20562;-85
2022/01/12 13:02:48;;;;;;;39.33;14.55;;;6.00;99.90;;;;;;4854554;29;20065;-85
2022/01/12 13:05:17;;;;;;;42.47;14.30;;;6.00;99.90;;;;;;4856541;29;20041;-85
2022/01/12 13:07:45;;;;;;;39.75;13.18;;;6.00;99.90;;;;;;4864491;29;20061;-85
2022/01/12 13:10:14;;;;;;;41.53;14.48;;;5.90;99.90;;;;;;4871212;29;20079;-85
2022/01/12 13:12:52;;;;;;;37.80;13.50;;;6.10;99.90;;;;;;4861008;29;20044;-85
2022/01/12 13:15:24;;;;;;;49.70;14.50;;;6.00;99.90;;;;;;4850359;29;20509;-85
2022/01/12 13:18:07;;;;;;;44.90;13.32;;;5.80;99.90;;;;;;4843980;29;20048;-85
2022/01/12 13:23:25;;;;;;;35.22;12.85;;;5.70;99.90;;;;;;4885442;29;20050;-85
2022/01/12 13:25:55;;;;;;;38.55;12.52;;;5.70;99.90;;;;;;4845504;29;20056;-85
2022/01/12 13:28:21;;;;;;;34.55;12.77;;;5.90;99.90;;;;;;4855787;29;20477;-86
2022/01/12 13:30:53;;;;;;;36.45;11.90;;;6.00;99.90;;;;;;4856803;29;20045;-85
2022/01/12 13:33:37;;;;;;;42.15;14.93;;;6.10;99.90;;;;;;4858887;29;20064;-85
2022/01/12 13:36:19;;;;;;;31.20;12.65;;;6.10;99.90;;;;;;4867873;29;20041;-85
2022/01/12 13:38:54;;;;;;;34.17;12.80;;;6.00;99.90;;;;;;4872072;29;20049;-85
2022/01/12 13:41:26;;;;;;;38.28;13.52;;;6.20;99.90;;;;;;4858876;29;20635;-86
2022/01/12 13:43:58;;;;;;;40.05;13.52;;;6.10;99.90;;;;;;4862950;29;20038;-86
2022/01/12 13:46:37;;;;;;;35.13;12.30;;;5.90;99.90;;;;;;4852503;29;20041;-86
2022/01/12 13:51:41;;;;;;;37.90;14.07;;;5.80;99.90;;;;;;4868517;29;20132;-86
2022/01/12 13:54:10;;;;;;;75.70;25.15;;;5.80;99.90;;;;;;4854617;29;20041;-85
2022/01/12 13:56:38;;;;;;;40.80;14.18;;;5.70;99.90;;;;;;4858897;29;20065;-86
2022/01/12 13:59:05;;;;;;;36.22;13.48;;;5.70;99.90;;;;;;4876829;29;20040;-86
2022/01/12 14:01:32;;;;;;;35.15;13.43;;;5.80;99.90;;;;;;4851164;29;20076;-86
2022/01/12 14:04:08;;;;;;;36.78;12.65;;;5.80;99.90;;;;;;4848148;29;20037;-86
2022/01/12 14:06:40;;;;;;;42.63;12.85;;;5.70;99.90;;;;;;4878915;29;20052;-85
2022/01/12 14:09:38;;;;;;;27.15;11.82;;;5.70;99.90;;;;;;4871513;29;20055;-85
2022/01/12 14:12:27;;;;;;;29.83;11.40;;;5.60;99.90;;;;;;4859108;29;20033;-86
2022/01/12 14:15:05;;;;;;;35.30;11.45;;;5.60;99.90;;;;;;4874825;29;20049;-86
2022/01/12 14:17:39;;;;;;;29.65;11.55;;;5.50;99.90;;;;;;4874882;29;20575;-85